Dallas, SD (57529)

10:19 AM CST on February 07, 2016 (GMT -0600)
NonFedAWOS | | Change Station
CLOSE
Current Station
Personal Weather Station
Location: Gregory, SD
Elevation: 2167 ft
Nearby Weather Stations
Active Advisory: High Wind Warning

Elev 2167 ft 43.22 °N, 99.40 °W | Updated 44 minutes ago

Clear
Clear
37 °F
Feels Like 24 °F
N
32
Wind Variable Wind from WNW
Gusts 41.0 mph

Today
High -- | Low -- °F
--% Chance of Precip.
Yesterday
High -- | Low -- °F
Precip. -- in
Pressure 30.03 in
Visibility 10.0 miles
Clouds Clear
Windchill 24 °F
Dew Point 21 °F
Humidity 52%
Rainfall in
Snow Depth Not available.
7:47 AM 5:57 PM
Waning Crescent, 1% visible
METAR KICR 071553Z AUTO 29023G34KT 10SM CLR 03/M08 A2999 RMK AO2 PK WND 30035/1534 SLP167 T00331078
Pressure 30.03 in
Visibility 10.0 miles
Clouds Clear
Windchill 24 °F
Dew Point 21 °F
Humidity 52%
Rainfall in
Snow Depth Not available.
7:47 AM 5:57 PM
Waning Crescent, 1% visible
METAR KICR 071553Z AUTO 29023G34KT 10SM CLR 03/M08 A2999 RMK AO2 PK WND 30035/1534 SLP167 T00331078

10-Day Weather Forecast

Almanac

Astronomy

Feb. 07, 2016 Rise Set
Actual Time
Civil Twilight
Nautical Twilight
Astronomical Twilight
Moon
Length of Visible Light
Length of Day
Tomorrow will be .
, % of the Moon is Illuminated

Today's Extremes

State Highs State Lows

Community

WunderPhotos

Upload Photos

1,891,221 photos uploaded!

WunderBlog® & News

Nearby

Air Quality

  Air Quality AQ Index Pollutant
Not available.

Snow Depth

Station Depth Elevation

Earthquake Activity

City Distance Mag. Time & Date
Minimum magnitude displayed is 2.5.

Coastal Water Temperatures

Place Temperature

Stations

Nearby Weather Stations

Station Location Temp. Windchill Dew Point Humidity Wind Precip. Elev Updated Type
                   

Watches & Warnings

High Wind Warning
Issued: 4:37 AM CST Feb. 7, 2016 – National Weather Service

... High Wind Warning now in effect from 9 am this morning to 9 PM
CST this evening...

* timing... the strongest winds should occur from very late this
morning through early evening. Windy conditions will continue
through all of Sunday night.

* Weather conditions... sustained wind speeds between 30 and 40 mph
are likely... with gusts to 55 mph or greater this afternoon and
early evening. The gusty winds will decrease slightly heading
through Sunday night... but will still range between 25 and 40 mph.

Precautionary/preparedness actions...

A High Wind Warning means a hazardous high wind event is expected
or occurring. Sustained wind speeds of at least 40 mph or gusts
of 58 mph or more can lead to property damage.